sensor_id;sensor_type;location;lat;lon;timestamp;temperature;humidity
43808;DHT22;29438;50.664;10.098;2022-08-16T00:00:59;15.70;83.70
43808;DHT22;29438;50.664;10.098;2022-08-16T00:03:25;15.60;83.90
43808;DHT22;29438;50.664;10.098;2022-08-16T00:05:50;15.60;84.00
43808;DHT22;29438;50.664;10.098;2022-08-16T00:08:17;15.60;84.00
43808;DHT22;29438;50.664;10.098;2022-08-16T00:10:43;15.70;84.00
43808;DHT22;29438;50.664;10.098;2022-08-16T00:13:09;15.70;84.00
43808;DHT22;29438;50.664;10.098;2022-08-16T00:15:44;15.70;84.00
43808;DHT22;29438;50.664;10.098;2022-08-16T00:18:12;15.80;84.40
43808;DHT22;29438;50.664;10.098;2022-08-16T00:20:40;15.90;84.80
43808;DHT22;29438;50.664;10.098;2022-08-16T00:23:06;16.10;85.30
43808;DHT22;29438;50.664;10.098;2022-08-16T00:25:32;16.20;85.30
43808;DHT22;29438;50.664;10.098;2022-08-16T00:27:58;16.20;85.20
43808;DHT22;29438;50.664;10.098;2022-08-16T00:30:23;16.20;85.00
43808;DHT22;29438;50.664;10.098;2022-08-16T00:32:52;16.30;85.00
43808;DHT22;29438;50.664;10.098;2022-08-16T00:35:22;16.50;84.60
43808;DHT22;29438;50.664;10.098;2022-08-16T00:37:48;16.70;83.80
43808;DHT22;29438;50.664;10.098;2022-08-16T00:40:20;16.90;83.20
43808;DHT22;29438;50.664;10.098;2022-08-16T00:42:46;17.00;82.60
43808;DHT22;29438;50.664;10.098;2022-08-16T00:45:34;17.20;82.10
43808;DHT22;29438;50.664;10.098;2022-08-16T00:48:05;17.20;81.70
43808;DHT22;29438;50.664;10.098;2022-08-16T00:50:33;17.20;81.50
43808;DHT22;29438;50.664;10.098;2022-08-16T00:52:59;17.30;81.20
43808;DHT22;29438;50.664;10.098;2022-08-16T00:55:25;17.30;81.20
43808;DHT22;29438;50.664;10.098;2022-08-16T00:57:53;17.30;81.20
43808;DHT22;29438;50.664;10.098;2022-08-16T01:00:21;17.30;81.40
43808;DHT22;29438;50.664;10.098;2022-08-16T01:02:49;17.20;81.60
43808;DHT22;29438;50.664;10.098;2022-08-16T01:05:15;17.40;81.20
43808;DHT22;29438;50.664;10.098;2022-08-16T01:07:42;17.50;80.80
43808;DHT22;29438;50.664;10.098;2022-08-16T01:10:09;17.60;80.40
43808;DHT22;29438;50.664;10.098;2022-08-16T01:12:34;17.50;80.40
43808;DHT22;29438;50.664;10.098;2022-08-16T01:15:00;17.30;80.80
43808;DHT22;29438;50.664;10.098;2022-08-16T01:17:27;17.10;81.50
43808;DHT22;29438;50.664;10.098;2022-08-16T01:19:56;16.90;82.00
43808;DHT22;29438;50.664;10.098;2022-08-16T01:22:35;16.80;82.20
43808;DHT22;29438;50.664;10.098;2022-08-16T01:25:20;16.70;82.60
43808;DHT22;29438;50.664;10.098;2022-08-16T01:27:50;16.70;82.50
43808;DHT22;29438;50.664;10.098;2022-08-16T01:30:20;16.50;82.90
43808;DHT22;29438;50.664;10.098;2022-08-16T01:32:47;16.40;83.50
43808;DHT22;29438;50.664;10.098;2022-08-16T01:35:28;16.40;83.80
43808;DHT22;29438;50.664;10.098;2022-08-16T01:37:56;16.40;84.00
43808;DHT22;29438;50.664;10.098;2022-08-16T01:40:28;16.40;84.30
43808;DHT22;29438;50.664;10.098;2022-08-16T01:42:54;16.60;84.10
43808;DHT22;29438;50.664;10.098;2022-08-16T01:45:21;16.70;83.80
43808;DHT22;29438;50.664;10.098;2022-08-16T01:47:50;16.70;83.60
43808;DHT22;29438;50.664;10.098;2022-08-16T01:50:16;16.80;83.30
43808;DHT22;29438;50.664;10.098;2022-08-16T01:52:42;16.80;83.30
43808;DHT22;29438;50.664;10.098;2022-08-16T01:55:09;16.90;83.30
43808;DHT22;29438;50.664;10.098;2022-08-16T01:57:35;16.90;83.00
43808;DHT22;29438;50.664;10.098;2022-08-16T02:00:04;17.00;82.70
43808;DHT22;29438;50.664;10.098;2022-08-16T02:02:30;17.10;82.50
43808;DHT22;29438;50.664;10.098;2022-08-16T02:04:56;17.10;82.30
43808;DHT22;29438;50.664;10.098;2022-08-16T02:07:24;17.10;82.20
43808;DHT22;29438;50.664;10.098;2022-08-16T02:09:51;17.20;81.90
43808;DHT22;29438;50.664;10.098;2022-08-16T02:12:16;17.20;81.70
43808;DHT22;29438;50.664;10.098;2022-08-16T02:14:42;17.20;81.80
43808;DHT22;29438;50.664;10.098;2022-08-16T02:17:10;17.00;82.20
43808;DHT22;29438;50.664;10.098;2022-08-16T02:19:39;16.90;82.30
43808;DHT22;29438;50.664;10.098;2022-08-16T02:22:06;16.80;82.90
43808;DHT22;29438;50.664;10.098;2022-08-16T02:24:34;16.70;83.10
43808;DHT22;29438;50.664;10.098;2022-08-16T02:27:00;16.70;83.30
43808;DHT22;29438;50.664;10.098;2022-08-16T02:29:25;16.60;83.60
43808;DHT22;29438;50.664;10.098;2022-08-16T02:31:51;16.50;83.80
43808;DHT22;29438;50.664;10.098;2022-08-16T02:34:18;16.50;84.10
43808;DHT22;29438;50.664;10.098;2022-08-16T02:36:44;16.40;84.30
43808;DHT22;29438;50.664;10.098;2022-08-16T02:39:11;16.50;84.30
43808;DHT22;29438;50.664;10.098;2022-08-16T02:41:39;16.50;84.20
43808;DHT22;29438;50.664;10.098;2022-08-16T02:44:05;16.40;84.20
43808;DHT22;29438;50.664;10.098;2022-08-16T02:46:32;16.30;84.40
43808;DHT22;29438;50.664;10.098;2022-08-16T02:48:59;16.20;84.90
43808;DHT22;29438;50.664;10.098;2022-08-16T02:51:25;16.20;85.00
43808;DHT22;29438;50.664;10.098;2022-08-16T02:53:52;16.10;85.30
43808;DHT22;29438;50.664;10.098;2022-08-16T02:56:18;16.00;85.40
43808;DHT22;29438;50.664;10.098;2022-08-16T02:58:46;15.90;85.40
43808;DHT22;29438;50.664;10.098;2022-08-16T03:01:14;15.90;85.60
43808;DHT22;29438;50.664;10.098;2022-08-16T03:03:40;16.00;85.70
43808;DHT22;29438;50.664;10.098;2022-08-16T03:06:05;16.00;85.40
43808;DHT22;29438;50.664;10.098;2022-08-16T03:08:31;16.00;85.40
43808;DHT22;29438;50.664;10.098;2022-08-16T03:10:56;16.00;85.60
43808;DHT22;29438;50.664;10.098;2022-08-16T03:13:23;16.00;85.40
43808;DHT22;29438;50.664;10.098;2022-08-16T03:15:48;15.90;85.40
43808;DHT22;29438;50.664;10.098;2022-08-16T03:18:14;15.80;85.70
43808;DHT22;29438;50.664;10.098;2022-08-16T03:20:40;15.80;85.90
43808;DHT22;29438;50.664;10.098;2022-08-16T03:23:06;15.80;86.10
43808;DHT22;29438;50.664;10.098;2022-08-16T03:25:33;16.00;86.30
43808;DHT22;29438;50.664;10.098;2022-08-16T03:27:59;16.20;85.70
43808;DHT22;29438;50.664;10.098;2022-08-16T03:30:29;16.30;85.30
43808;DHT22;29438;50.664;10.098;2022-08-16T03:32:55;16.40;84.80
43808;DHT22;29438;50.664;10.098;2022-08-16T03:35:24;16.50;84.50
43808;DHT22;29438;50.664;10.098;2022-08-16T03:37:54;16.50;84.20
43808;DHT22;29438;50.664;10.098;2022-08-16T03:40:20;16.50;84.10
43808;DHT22;29438;50.664;10.098;2022-08-16T03:42:46;16.30;84.10
43808;DHT22;29438;50.664;10.098;2022-08-16T03:45:12;16.10;84.50
43808;DHT22;29438;50.664;10.098;2022-08-16T03:47:39;15.90;85.00
43808;DHT22;29438;50.664;10.098;2022-08-16T03:50:05;15.80;85.30
43808;DHT22;29438;50.664;10.098;2022-08-16T03:52:32;15.70;85.60
43808;DHT22;29438;50.664;10.098;2022-08-16T03:54:58;15.50;85.70
43808;DHT22;29438;50.664;10.098;2022-08-16T03:57:24;15.50;86.20
43808;DHT22;29438;50.664;10.098;2022-08-16T03:59:50;15.40;86.50
43808;DHT22;29438;50.664;10.098;2022-08-16T04:02:15;15.40;86.70
43808;DHT22;29438;50.664;10.098;2022-08-16T04:04:43;15.30;86.80
43808;DHT22;29438;50.664;10.098;2022-08-16T04:07:09;15.30;86.70
43808;DHT22;29438;50.664;10.098;2022-08-16T04:09:35;15.20;86.70
43808;DHT22;29438;50.664;10.098;2022-08-16T04:12:02;15.20;86.80
43808;DHT22;29438;50.664;10.098;2022-08-16T04:14:28;15.20;87.10
43808;DHT22;29438;50.664;10.098;2022-08-16T04:16:54;15.20;87.20
43808;DHT22;29438;50.664;10.098;2022-08-16T04:19:20;15.20;87.10
43808;DHT22;29438;50.664;10.098;2022-08-16T04:21:47;15.20;87.20
43808;DHT22;29438;50.664;10.098;2022-08-16T04:24:13;15.20;87.30
43808;DHT22;29438;50.664;10.098;2022-08-16T04:26:39;15.20;87.40
43808;DHT22;29438;50.664;10.098;2022-08-16T04:29:04;15.20;87.60
43808;DHT22;29438;50.664;10.098;2022-08-16T04:31:30;15.20;87.60
43808;DHT22;29438;50.664;10.098;2022-08-16T04:36:21;15.30;87.20
43808;DHT22;29438;50.664;10.098;2022-08-16T04:38:46;15.30;87.20
43808;DHT22;29438;50.664;10.098;2022-08-16T04:41:12;15.40;87.10
43808;DHT22;29438;50.664;10.098;2022-08-16T04:43:37;15.40;86.90
43808;DHT22;29438;50.664;10.098;2022-08-16T04:46:04;15.50;86.80
43808;DHT22;29438;50.664;10.098;2022-08-16T04:48:29;15.50;86.60
43808;DHT22;29438;50.664;10.098;2022-08-16T04:50:55;15.50;86.40
43808;DHT22;29438;50.664;10.098;2022-08-16T04:53:21;15.50;86.40
43808;DHT22;29438;50.664;10.098;2022-08-16T04:55:47;15.60;86.30
43808;DHT22;29438;50.664;10.098;2022-08-16T04:58:13;15.80;86.30
43808;DHT22;29438;50.664;10.098;2022-08-16T05:00:38;16.00;85.40
43808;DHT22;29438;50.664;10.098;2022-08-16T05:03:07;16.20;84.80
43808;DHT22;29438;50.664;10.098;2022-08-16T05:05:35;16.50;83.80
43808;DHT22;29438;50.664;10.098;2022-08-16T05:08:01;16.90;82.80
43808;DHT22;29438;50.664;10.098;2022-08-16T05:10:27;17.00;81.70
43808;DHT22;29438;50.664;10.098;2022-08-16T05:12:53;16.90;81.90
43808;DHT22;29438;50.664;10.098;2022-08-16T05:15:19;16.70;82.50
43808;DHT22;29438;50.664;10.098;2022-08-16T05:17:44;16.60;83.50
43808;DHT22;29438;50.664;10.098;2022-08-16T05:20:10;16.50;83.80
43808;DHT22;29438;50.664;10.098;2022-08-16T05:22:37;16.70;83.80
43808;DHT22;29438;50.664;10.098;2022-08-16T05:25:04;16.90;83.30
43808;DHT22;29438;50.664;10.098;2022-08-16T05:27:31;17.20;81.90
43808;DHT22;29438;50.664;10.098;2022-08-16T05:29:56;17.50;80.70
43808;DHT22;29438;50.664;10.098;2022-08-16T05:32:22;17.90;80.00
43808;DHT22;29438;50.664;10.098;2022-08-16T05:34:47;18.20;78.90
43808;DHT22;29438;50.664;10.098;2022-08-16T05:37:13;18.30;77.80
43808;DHT22;29438;50.664;10.098;2022-08-16T05:39:39;18.30;77.30
43808;DHT22;29438;50.664;10.098;2022-08-16T05:42:04;18.30;77.10
43808;DHT22;29438;50.664;10.098;2022-08-16T05:44:30;18.60;76.60
43808;DHT22;29438;50.664;10.098;2022-08-16T05:46:58;18.80;75.90
43808;DHT22;29438;50.664;10.098;2022-08-16T05:49:25;19.00;74.90
43808;DHT22;29438;50.664;10.098;2022-08-16T05:51:51;18.90;74.60
43808;DHT22;29438;50.664;10.098;2022-08-16T05:54:19;18.90;74.80
43808;DHT22;29438;50.664;10.098;2022-08-16T05:56:44;18.90;74.80
43808;DHT22;29438;50.664;10.098;2022-08-16T05:59:11;19.20;74.00
43808;DHT22;29438;50.664;10.098;2022-08-16T06:01:38;19.30;73.60
43808;DHT22;29438;50.664;10.098;2022-08-16T06:04:04;19.50;72.50
43808;DHT22;29438;50.664;10.098;2022-08-16T06:06:30;19.60;72.70
43808;DHT22;29438;50.664;10.098;2022-08-16T06:08:55;19.90;72.10
43808;DHT22;29438;50.664;10.098;2022-08-16T06:11:21;20.10;71.50
43808;DHT22;29438;50.664;10.098;2022-08-16T06:13:46;20.00;70.30
43808;DHT22;29438;50.664;10.098;2022-08-16T06:16:12;20.20;70.80
43808;DHT22;29438;50.664;10.098;2022-08-16T06:18:38;20.20;70.90
43808;DHT22;29438;50.664;10.098;2022-08-16T06:21:03;20.40;70.10
43808;DHT22;29438;50.664;10.098;2022-08-16T06:23:30;20.70;69.10
43808;DHT22;29438;50.664;10.098;2022-08-16T06:25:56;21.10;68.90
43808;DHT22;29438;50.664;10.098;2022-08-16T06:28:21;22.90;62.90
43808;DHT22;29438;50.664;10.098;2022-08-16T06:30:47;25.10;55.90
43808;DHT22;29438;50.664;10.098;2022-08-16T06:33:15;25.10;54.50
43808;DHT22;29438;50.664;10.098;2022-08-16T06:35:40;23.70;57.30
43808;DHT22;29438;50.664;10.098;2022-08-16T06:38:06;22.60;61.30
43808;DHT22;29438;50.664;10.098;2022-08-16T06:40:31;22.40;62.70
43808;DHT22;29438;50.664;10.098;2022-08-16T06:42:58;23.20;60.40
43808;DHT22;29438;50.664;10.098;2022-08-16T06:45:23;23.80;58.40
43808;DHT22;29438;50.664;10.098;2022-08-16T06:47:49;23.70;58.40
43808;DHT22;29438;50.664;10.098;2022-08-16T06:50:15;22.90;60.30
43808;DHT22;29438;50.664;10.098;2022-08-16T06:52:41;22.40;62.30
43808;DHT22;29438;50.664;10.098;2022-08-16T06:55:09;22.20;62.10
43808;DHT22;29438;50.664;10.098;2022-08-16T06:57:35;22.10;63.10
43808;DHT22;29438;50.664;10.098;2022-08-16T07:00:01;22.20;62.70
43808;DHT22;29438;50.664;10.098;2022-08-16T07:02:27;22.20;62.90
43808;DHT22;29438;50.664;10.098;2022-08-16T07:04:52;22.10;63.00
43808;DHT22;29438;50.664;10.098;2022-08-16T07:07:18;22.20;63.40
43808;DHT22;29438;50.664;10.098;2022-08-16T07:09:45;22.00;62.90
43808;DHT22;29438;50.664;10.098;2022-08-16T07:12:14;22.00;64.20
43808;DHT22;29438;50.664;10.098;2022-08-16T07:14:40;22.10;62.60
43808;DHT22;29438;50.664;10.098;2022-08-16T07:17:06;22.00;62.60
43808;DHT22;29438;50.664;10.098;2022-08-16T07:19:32;22.00;62.80
43808;DHT22;29438;50.664;10.098;2022-08-16T07:21:58;22.00;62.80
43808;DHT22;29438;50.664;10.098;2022-08-16T07:24:27;22.10;62.90
43808;DHT22;29438;50.664;10.098;2022-08-16T07:26:54;22.20;62.90
43808;DHT22;29438;50.664;10.098;2022-08-16T07:29:19;22.20;62.80
43808;DHT22;29438;50.664;10.098;2022-08-16T07:31:45;22.30;62.10
43808;DHT22;29438;50.664;10.098;2022-08-16T07:34:11;22.40;61.80
43808;DHT22;29438;50.664;10.098;2022-08-16T07:36:36;22.20;61.80
43808;DHT22;29438;50.664;10.098;2022-08-16T07:39:03;22.30;62.30
43808;DHT22;29438;50.664;10.098;2022-08-16T07:41:28;22.40;62.00
43808;DHT22;29438;50.664;10.098;2022-08-16T07:43:54;22.70;61.50
43808;DHT22;29438;50.664;10.098;2022-08-16T07:46:20;22.90;60.00
43808;DHT22;29438;50.664;10.098;2022-08-16T07:48:46;22.90;60.50
43808;DHT22;29438;50.664;10.098;2022-08-16T07:51:11;23.00;61.00
43808;DHT22;29438;50.664;10.098;2022-08-16T07:53:37;23.00;60.20
43808;DHT22;29438;50.664;10.098;2022-08-16T07:56:03;23.10;59.50
43808;DHT22;29438;50.664;10.098;2022-08-16T07:58:29;23.30;59.90
43808;DHT22;29438;50.664;10.098;2022-08-16T08:00:55;23.50;58.60
43808;DHT22;29438;50.664;10.098;2022-08-16T08:03:21;23.50;58.90
43808;DHT22;29438;50.664;10.098;2022-08-16T08:05:46;23.50;58.70
43808;DHT22;29438;50.664;10.098;2022-08-16T08:08:12;23.70;59.60
43808;DHT22;29438;50.664;10.098;2022-08-16T08:10:38;23.60;58.30
43808;DHT22;29438;50.664;10.098;2022-08-16T08:13:04;23.10;58.90
43808;DHT22;29438;50.664;10.098;2022-08-16T08:15:30;23.00;59.50
43808;DHT22;29438;50.664;10.098;2022-08-16T08:17:55;22.90;60.80
43808;DHT22;29438;50.664;10.098;2022-08-16T08:20:22;22.90;60.50
43808;DHT22;29438;50.664;10.098;2022-08-16T08:22:52;22.70;61.60
43808;DHT22;29438;50.664;10.098;2022-08-16T08:25:19;23.20;59.30
43808;DHT22;29438;50.664;10.098;2022-08-16T08:27:45;23.50;61.10
43808;DHT22;29438;50.664;10.098;2022-08-16T08:30:11;23.90;56.80
43808;DHT22;29438;50.664;10.098;2022-08-16T08:32:37;24.60;55.60
43808;DHT22;29438;50.664;10.098;2022-08-16T08:35:04;26.40;51.70
43808;DHT22;29438;50.664;10.098;2022-08-16T08:37:31;27.40;48.10
43808;DHT22;29438;50.664;10.098;2022-08-16T08:39:57;27.40;48.20
43808;DHT22;29438;50.664;10.098;2022-08-16T08:42:22;28.60;46.60
43808;DHT22;29438;50.664;10.098;2022-08-16T08:44:48;28.70;46.00
43808;DHT22;29438;50.664;10.098;2022-08-16T08:47:13;29.80;43.20
43808;DHT22;29438;50.664;10.098;2022-08-16T08:49:39;29.80;42.60
43808;DHT22;29438;50.664;10.098;2022-08-16T08:52:05;29.70;42.60
43808;DHT22;29438;50.664;10.098;2022-08-16T08:54:31;30.40;42.10
43808;DHT22;29438;50.664;10.098;2022-08-16T08:56:58;29.60;42.20
43808;DHT22;29438;50.664;10.098;2022-08-16T08:59:23;29.10;44.20
43808;DHT22;29438;50.664;10.098;2022-08-16T09:01:50;30.00;45.10
43808;DHT22;29438;50.664;10.098;2022-08-16T09:04:15;31.70;39.90
43808;DHT22;29438;50.664;10.098;2022-08-16T09:06:42;32.60;37.10
43808;DHT22;29438;50.664;10.098;2022-08-16T09:09:07;32.80;37.40
43808;DHT22;29438;50.664;10.098;2022-08-16T09:11:36;31.70;39.00
43808;DHT22;29438;50.664;10.098;2022-08-16T09:14:03;31.20;39.10
43808;DHT22;29438;50.664;10.098;2022-08-16T09:16:29;30.20;40.40
43808;DHT22;29438;50.664;10.098;2022-08-16T09:18:55;29.30;43.00
43808;DHT22;29438;50.664;10.098;2022-08-16T09:21:20;28.90;42.50
43808;DHT22;29438;50.664;10.098;2022-08-16T09:23:47;27.70;45.30
43808;DHT22;29438;50.664;10.098;2022-08-16T09:26:13;26.60;48.30
43808;DHT22;29438;50.664;10.098;2022-08-16T09:28:43;26.20;49.40
43808;DHT22;29438;50.664;10.098;2022-08-16T09:31:11;27.70;46.80
43808;DHT22;29438;50.664;10.098;2022-08-16T09:33:37;27.60;46.20
43808;DHT22;29438;50.664;10.098;2022-08-16T09:36:03;27.10;47.10
43808;DHT22;29438;50.664;10.098;2022-08-16T09:38:29;27.90;45.60
43808;DHT22;29438;50.664;10.098;2022-08-16T09:40:55;27.50;46.30
43808;DHT22;29438;50.664;10.098;2022-08-16T09:43:22;27.30;46.00
43808;DHT22;29438;50.664;10.098;2022-08-16T09:45:49;27.10;47.50
43808;DHT22;29438;50.664;10.098;2022-08-16T09:48:15;27.10;47.40
43808;DHT22;29438;50.664;10.098;2022-08-16T09:50:43;26.70;48.20
43808;DHT22;29438;50.664;10.098;2022-08-16T09:53:14;26.80;47.90
43808;DHT22;29438;50.664;10.098;2022-08-16T09:55:41;27.70;47.00
43808;DHT22;29438;50.664;10.098;2022-08-16T09:58:08;27.70;45.80
43808;DHT22;29438;50.664;10.098;2022-08-16T10:00:33;28.10;44.90
43808;DHT22;29438;50.664;10.098;2022-08-16T10:02:59;28.90;44.80
43808;DHT22;29438;50.664;10.098;2022-08-16T10:05:25;29.40;41.90
43808;DHT22;29438;50.664;10.098;2022-08-16T10:07:51;28.70;43.30
43808;DHT22;29438;50.664;10.098;2022-08-16T10:10:21;27.80;44.10
43808;DHT22;29438;50.664;10.098;2022-08-16T10:12:47;26.90;46.10
43808;DHT22;29438;50.664;10.098;2022-08-16T10:15:32;26.50;47.40
43808;DHT22;29438;50.664;10.098;2022-08-16T10:17:59;26.60;47.90
43808;DHT22;29438;50.664;10.098;2022-08-16T10:20:25;26.50;47.70
43808;DHT22;29438;50.664;10.098;2022-08-16T10:22:52;26.30;49.00
43808;DHT22;29438;50.664;10.098;2022-08-16T10:25:19;26.00;49.60
43808;DHT22;29438;50.664;10.098;2022-08-16T10:27:46;26.10;48.80
43808;DHT22;29438;50.664;10.098;2022-08-16T10:30:12;25.80;49.00
43808;DHT22;29438;50.664;10.098;2022-08-16T10:32:38;25.80;48.60
43808;DHT22;29438;50.664;10.098;2022-08-16T10:35:04;25.80;48.30
43808;DHT22;29438;50.664;10.098;2022-08-16T10:37:30;25.60;50.00
43808;DHT22;29438;50.664;10.098;2022-08-16T10:39:56;25.70;49.10
43808;DHT22;29438;50.664;10.098;2022-08-16T10:42:21;25.70;49.30
43808;DHT22;29438;50.664;10.098;2022-08-16T10:44:47;25.90;48.80
43808;DHT22;29438;50.664;10.098;2022-08-16T10:47:13;25.90;49.40
43808;DHT22;29438;50.664;10.098;2022-08-16T10:49:39;26.00;48.00
43808;DHT22;29438;50.664;10.098;2022-08-16T10:52:06;26.40;47.50
43808;DHT22;29438;50.664;10.098;2022-08-16T10:54:32;26.60;46.90
43808;DHT22;29438;50.664;10.098;2022-08-16T10:56:58;26.30;47.40
43808;DHT22;29438;50.664;10.098;2022-08-16T10:59:25;26.10;49.00
43808;DHT22;29438;50.664;10.098;2022-08-16T11:01:50;25.70;49.90
43808;DHT22;29438;50.664;10.098;2022-08-16T11:04:16;25.70;50.80
43808;DHT22;29438;50.664;10.098;2022-08-16T11:06:41;25.70;49.20
43808;DHT22;29438;50.664;10.098;2022-08-16T11:09:07;26.00;48.90
43808;DHT22;29438;50.664;10.098;2022-08-16T11:11:32;26.00;48.90
43808;DHT22;29438;50.664;10.098;2022-08-16T11:14:01;25.90;48.10
43808;DHT22;29438;50.664;10.098;2022-08-16T11:16:26;25.90;49.00
43808;DHT22;29438;50.664;10.098;2022-08-16T11:18:54;25.90;47.70
43808;DHT22;29438;50.664;10.098;2022-08-16T11:21:21;26.00;47.90
43808;DHT22;29438;50.664;10.098;2022-08-16T11:23:48;25.90;47.90
43808;DHT22;29438;50.664;10.098;2022-08-16T11:26:13;25.90;48.60
43808;DHT22;29438;50.664;10.098;2022-08-16T11:28:38;26.10;48.30
43808;DHT22;29438;50.664;10.098;2022-08-16T11:31:05;25.80;48.60
43808;DHT22;29438;50.664;10.098;2022-08-16T11:33:31;25.80;48.80
43808;DHT22;29438;50.664;10.098;2022-08-16T11:35:56;26.10;46.90
43808;DHT22;29438;50.664;10.098;2022-08-16T11:38:22;26.20;47.90
43808;DHT22;29438;50.664;10.098;2022-08-16T11:40:53;26.30;48.60
43808;DHT22;29438;50.664;10.098;2022-08-16T11:43:28;26.60;47.60
43808;DHT22;29438;50.664;10.098;2022-08-16T11:45:56;26.70;46.20
43808;DHT22;29438;50.664;10.098;2022-08-16T11:48:23;26.60;46.30
43808;DHT22;29438;50.664;10.098;2022-08-16T11:50:49;26.50;47.70
43808;DHT22;29438;50.664;10.098;2022-08-16T11:53:15;26.60;46.90
43808;DHT22;29438;50.664;10.098;2022-08-16T11:55:41;26.70;47.00
43808;DHT22;29438;50.664;10.098;2022-08-16T11:58:08;26.70;47.10
43808;DHT22;29438;50.664;10.098;2022-08-16T12:00:35;26.60;47.90
43808;DHT22;29438;50.664;10.098;2022-08-16T12:03:01;26.60;47.30
43808;DHT22;29438;50.664;10.098;2022-08-16T12:05:27;27.00;45.90
43808;DHT22;29438;50.664;10.098;2022-08-16T12:07:54;26.80;45.40
43808;DHT22;29438;50.664;10.098;2022-08-16T12:10:20;27.50;45.50
43808;DHT22;29438;50.664;10.098;2022-08-16T12:12:46;28.60;43.40
43808;DHT22;29438;50.664;10.098;2022-08-16T12:15:13;29.30;42.10
43808;DHT22;29438;50.664;10.098;2022-08-16T12:17:40;29.80;40.70
43808;DHT22;29438;50.664;10.098;2022-08-16T12:20:13;30.40;39.40
43808;DHT22;29438;50.664;10.098;2022-08-16T12:22:38;30.90;37.90
43808;DHT22;29438;50.664;10.098;2022-08-16T12:25:06;31.10;38.00
43808;DHT22;29438;50.664;10.098;2022-08-16T12:27:31;30.80;38.30
43808;DHT22;29438;50.664;10.098;2022-08-16T12:29:57;30.80;38.60
43808;DHT22;29438;50.664;10.098;2022-08-16T12:32:23;30.40;37.70
43808;DHT22;29438;50.664;10.098;2022-08-16T12:34:49;30.10;38.30
43808;DHT22;29438;50.664;10.098;2022-08-16T12:37:15;30.20;41.20
43808;DHT22;29438;50.664;10.098;2022-08-16T12:39:42;30.10;38.90
43808;DHT22;29438;50.664;10.098;2022-08-16T12:42:07;29.80;39.20
43808;DHT22;29438;50.664;10.098;2022-08-16T12:44:36;29.70;39.30
43808;DHT22;29438;50.664;10.098;2022-08-16T12:47:03;29.30;39.00
43808;DHT22;29438;50.664;10.098;2022-08-16T12:49:47;28.70;40.70
43808;DHT22;29438;50.664;10.098;2022-08-16T12:52:13;28.60;41.10
43808;DHT22;29438;50.664;10.098;2022-08-16T12:54:39;28.40;41.40
43808;DHT22;29438;50.664;10.098;2022-08-16T12:57:08;27.80;42.50
43808;DHT22;29438;50.664;10.098;2022-08-16T12:59:34;27.50;43.40
43808;DHT22;29438;50.664;10.098;2022-08-16T13:02:02;27.50;43.20
43808;DHT22;29438;50.664;10.098;2022-08-16T13:04:30;27.50;43.50
43808;DHT22;29438;50.664;10.098;2022-08-16T13:06:58;27.50;43.10
43808;DHT22;29438;50.664;10.098;2022-08-16T13:09:24;27.50;43.30
43808;DHT22;29438;50.664;10.098;2022-08-16T13:14:37;27.30;43.20
43808;DHT22;29438;50.664;10.098;2022-08-16T13:17:04;27.10;44.10
43808;DHT22;29438;50.664;10.098;2022-08-16T13:19:30;27.10;45.60
43808;DHT22;29438;50.664;10.098;2022-08-16T13:21:56;27.20;43.50
43808;DHT22;29438;50.664;10.098;2022-08-16T13:24:21;27.00;43.60
43808;DHT22;29438;50.664;10.098;2022-08-16T13:26:47;27.20;43.50
43808;DHT22;29438;50.664;10.098;2022-08-16T13:29:12;27.10;42.90
43808;DHT22;29438;50.664;10.098;2022-08-16T13:31:38;26.90;42.50
43808;DHT22;29438;50.664;10.098;2022-08-16T13:34:03;26.70;43.80
43808;DHT22;29438;50.664;10.098;2022-08-16T13:36:29;26.70;43.20
43808;DHT22;29438;50.664;10.098;2022-08-16T13:38:55;27.30;45.00
43808;DHT22;29438;50.664;10.098;2022-08-16T13:41:21;27.90;42.10
43808;DHT22;29438;50.664;10.098;2022-08-16T13:43:47;28.50;41.10
43808;DHT22;29438;50.664;10.098;2022-08-16T13:46:12;28.80;39.70
43808;DHT22;29438;50.664;10.098;2022-08-16T13:48:38;28.70;39.60
43808;DHT22;29438;50.664;10.098;2022-08-16T13:51:04;28.60;39.90
43808;DHT22;29438;50.664;10.098;2022-08-16T13:53:29;28.20;42.40
43808;DHT22;29438;50.664;10.098;2022-08-16T13:55:56;28.20;40.40
43808;DHT22;29438;50.664;10.098;2022-08-16T13:58:22;28.10;40.70
43808;DHT22;29438;50.664;10.098;2022-08-16T14:00:48;27.70;42.20
43808;DHT22;29438;50.664;10.098;2022-08-16T14:03:15;27.50;41.70
43808;DHT22;29438;50.664;10.098;2022-08-16T14:05:40;27.60;42.90
43808;DHT22;29438;50.664;10.098;2022-08-16T14:08:06;27.50;43.20
43808;DHT22;29438;50.664;10.098;2022-08-16T14:10:31;27.50;42.80
43808;DHT22;29438;50.664;10.098;2022-08-16T14:12:57;27.40;43.00
43808;DHT22;29438;50.664;10.098;2022-08-16T14:15:23;27.40;42.50
43808;DHT22;29438;50.664;10.098;2022-08-16T14:17:49;27.60;42.80
43808;DHT22;29438;50.664;10.098;2022-08-16T14:20:15;28.10;41.90
43808;DHT22;29438;50.664;10.098;2022-08-16T14:22:42;28.20;41.70
43808;DHT22;29438;50.664;10.098;2022-08-16T14:25:14;28.40;41.70
43808;DHT22;29438;50.664;10.098;2022-08-16T14:27:40;28.70;40.90
43808;DHT22;29438;50.664;10.098;2022-08-16T14:30:07;28.70;41.70
43808;DHT22;29438;50.664;10.098;2022-08-16T14:32:35;28.70;39.90
43808;DHT22;29438;50.664;10.098;2022-08-16T14:35:06;29.00;41.20
43808;DHT22;29438;50.664;10.098;2022-08-16T14:37:32;28.90;41.60
43808;DHT22;29438;50.664;10.098;2022-08-16T14:39:57;28.90;41.20
43808;DHT22;29438;50.664;10.098;2022-08-16T14:42:24;28.70;40.10
43808;DHT22;29438;50.664;10.098;2022-08-16T14:44:50;28.50;40.90
43808;DHT22;29438;50.664;10.098;2022-08-16T14:47:16;28.30;41.00
43808;DHT22;29438;50.664;10.098;2022-08-16T14:49:42;28.00;42.00
43808;DHT22;29438;50.664;10.098;2022-08-16T14:52:10;27.90;43.10
43808;DHT22;29438;50.664;10.098;2022-08-16T14:54:38;27.70;43.40
43808;DHT22;29438;50.664;10.098;2022-08-16T14:57:05;27.50;43.10
43808;DHT22;29438;50.664;10.098;2022-08-16T14:59:30;27.20;42.90
43808;DHT22;29438;50.664;10.098;2022-08-16T15:01:57;27.10;44.20
43808;DHT22;29438;50.664;10.098;2022-08-16T15:04:23;27.10;43.20
43808;DHT22;29438;50.664;10.098;2022-08-16T15:06:49;27.20;44.10
43808;DHT22;29438;50.664;10.098;2022-08-16T15:09:14;27.10;44.80
43808;DHT22;29438;50.664;10.098;2022-08-16T15:11:40;27.10;44.30
43808;DHT22;29438;50.664;10.098;2022-08-16T15:14:06;27.10;45.20
43808;DHT22;29438;50.664;10.098;2022-08-16T15:16:31;26.90;43.70